Time;durP1;ratioP1;P1;durP2;ratioP2;P2;SDS_P1;SDS_P2;PMS_P1;PMS_P2;Temp;Humidity;BMP_temperature;BMP_pressure;BME280_temperature;BME280_humidity;BME280_pressure;Samples;Min_cycle;Max_cycle;Signal;HPM_P1;HPM_P2
2022/07/09 00:00:59;;;;;;;5.67;2.13;;;;;;;14.98;64.87;100578.13;4984589;28;20207;-76
2022/07/09 00:03:24;;;;;;;6.63;2.70;;;;;;;14.98;65.52;100580.78;4996445;28;20839;-76
2022/07/09 00:05:50;;;;;;;4.73;2.97;;;;;;;14.97;65.69;100573.78;4999671;28;20666;-76
2022/07/09 00:08:15;;;;;;;6.60;2.40;;;;;;;14.96;65.51;100577.38;4984568;28;20329;-76
2022/07/09 00:10:41;;;;;;;4.53;2.33;;;;;;;14.89;65.75;100576.09;4987458;28;20297;-76
2022/07/09 00:13:07;;;;;;;5.83;2.70;;;;;;;14.77;65.69;100570.69;4984169;28;20267;-75
2022/07/09 00:15:32;;;;;;;3.60;2.87;;;;;;;14.65;66.15;100574.13;4985569;28;20573;-75
2022/07/09 00:17:58;;;;;;;3.27;2.90;;;;;;;14.57;66.35;100573.75;4983109;28;20485;-76
2022/07/09 00:20:23;;;;;;;3.93;2.80;;;;;;;14.51;66.48;100571.50;4983558;28;20203;-76
2022/07/09 00:22:49;;;;;;;3.47;2.40;;;;;;;14.47;66.53;100569.97;4983774;28;20329;-76
2022/07/09 00:25:14;;;;;;;8.33;2.43;;;;;;;14.41;66.59;100565.94;4984985;28;20260;-76
2022/07/09 00:27:39;;;;;;;3.33;2.87;;;;;;;14.36;66.77;100565.38;4984648;28;20207;-76
2022/07/09 00:30:05;;;;;;;2.40;2.13;;;;;;;14.30;67.21;100569.28;4982365;28;20488;-75
2022/07/09 00:32:31;;;;;;;3.40;3.10;;;;;;;14.19;67.42;100558.53;4996179;28;20597;-76
2022/07/09 00:34:56;;;;;;;3.47;2.43;;;;;;;14.11;68.04;100560.81;5004975;28;20455;-75
2022/07/09 00:37:21;;;;;;;6.50;2.37;;;;;;;14.06;68.42;100554.97;4988287;28;20218;-76
2022/07/09 00:39:47;;;;;;;3.47;2.87;;;;;;;14.06;68.30;100554.97;4982151;28;20276;-76
2022/07/09 00:42:12;;;;;;;3.00;2.70;;;;;;;14.08;68.18;100553.94;4990102;28;20232;-75
2022/07/09 00:44:38;;;;;;;2.80;2.40;;;;;;;14.12;67.90;100549.28;5004607;28;20419;-75
2022/07/09 00:47:06;;;;;;;4.40;2.47;;;;;;;14.19;67.68;100537.41;4994429;28;20371;-75
2022/07/09 00:49:35;;;;;;;3.30;2.42;;;;;;;14.27;67.50;100543.03;4982117;28;20512;-76
2022/07/09 00:52:01;;;;;;;6.83;2.90;;;;;;;14.32;67.34;100535.66;4982745;28;20233;-76
2022/07/09 00:54:30;;;;;;;2.83;2.20;;;;;;;14.34;67.21;100539.06;4986646;28;20538;-76
2022/07/09 00:56:59;;;;;;;4.65;3.00;;;;;;;14.35;67.21;100540.75;4992505;28;20227;-76
2022/07/09 00:59:25;;;;;;;3.60;2.33;;;;;;;14.35;67.27;100537.25;4979589;28;20206;-75
2022/07/09 01:01:50;;;;;;;2.83;2.50;;;;;;;14.35;67.30;100532.81;4986993;28;20229;-76
2022/07/09 01:04:18;;;;;;;5.25;2.67;;;;;;;14.37;67.05;100538.03;4995856;28;20295;-76
2022/07/09 01:06:44;;;;;;;3.30;2.73;;;;;;;14.39;66.92;100531.69;4990371;28;20288;-76
2022/07/09 01:09:10;;;;;;;5.57;2.70;;;;;;;14.40;66.72;100532.53;4981288;28;20218;-76
2022/07/09 01:11:36;;;;;;;3.63;3.33;;;;;;;14.39;66.73;100529.06;4982003;28;20281;-76
2022/07/09 01:14:02;;;;;;;5.40;3.67;;;;;;;14.43;66.61;100531.50;4984314;28;20215;-75
2022/07/09 01:16:32;;;;;;;3.33;3.03;;;;;;;14.46;66.37;100533.94;4984282;28;20464;-75
2022/07/09 01:18:57;;;;;;;5.20;3.85;;;;;;;14.48;66.18;100539.97;4983148;28;20204;-75
2022/07/09 01:21:23;;;;;;;5.53;3.57;;;;;;;14.48;66.12;100539.97;4997400;28;20287;-76
2022/07/09 01:23:48;;;;;;;4.00;2.40;;;;;;;14.49;66.14;100536.38;5002496;28;20624;-76
2022/07/09 01:26:14;;;;;;;3.83;2.67;;;;;;;14.44;66.07;100547.22;4996088;28;20222;-76
2022/07/09 01:28:39;;;;;;;3.27;2.20;;;;;;;14.32;66.50;100535.66;4985001;28;20224;-76
2022/07/09 01:31:05;;;;;;;4.93;3.20;;;;;;;14.21;67.20;100537.31;4982126;28;20500;-76
2022/07/09 01:33:31;;;;;;;3.60;2.87;;;;;;;14.10;67.53;100535.34;5003284;28;21041;-75
2022/07/09 01:35:57;;;;;;;3.08;2.78;;;;;;;14.01;67.69;100539.41;4993570;28;20717;-75
2022/07/09 01:38:23;;;;;;;3.07;2.87;;;;;;;13.90;68.13;100544.50;4992773;28;20263;-76
2022/07/09 01:40:48;;;;;;;7.60;2.87;;;;;;;13.78;68.45;100538.22;4981554;28;20211;-75
2022/07/09 01:43:14;;;;;;;4.13;2.90;;;;;;;13.69;68.65;100539.63;5000205;28;20244;-76
2022/07/09 01:45:45;;;;;;;6.57;3.50;;;;;;;13.67;68.81;100538.03;4984241;28;20275;-76
2022/07/09 01:48:11;;;;;;;6.38;2.70;;;;;;;13.71;68.76;100532.44;4991997;28;20237;-76
2022/07/09 01:50:36;;;;;;;5.00;2.67;;;;;;;13.79;68.34;100531.97;4982583;28;20216;-75
2022/07/09 01:53:01;;;;;;;3.17;2.50;;;;;;;13.84;68.38;100531.69;4984269;28;20418;-75
2022/07/09 01:55:27;;;;;;;5.03;2.17;;;;;;;13.88;68.31;100528.78;4990985;28;20649;-75
2022/07/09 01:57:52;;;;;;;2.40;2.20;;;;;;;13.90;68.35;100528.66;4987684;28;20208;-75
2022/07/09 02:00:19;;;;;;;3.63;3.13;;;;;;;13.89;68.42;100527.00;4982098;28;20564;-76
2022/07/09 02:02:44;;;;;;;4.30;2.35;;;;;;;13.86;68.34;100520.09;4982369;28;20217;-75
2022/07/09 02:05:10;;;;;;;3.13;2.83;;;;;;;13.83;68.58;100528.22;4984121;28;20584;-77
2022/07/09 02:07:35;;;;;;;6.50;2.77;;;;;;;13.82;68.56;100521.22;4984305;28;20236;-77
2022/07/09 02:10:02;;;;;;;3.47;3.00;;;;;;;13.83;68.53;100530.03;4984894;28;20246;-77
2022/07/09 02:12:27;;;;;;;3.78;2.70;;;;;;;13.84;68.10;100524.63;4982247;28;20221;-77
2022/07/09 02:14:53;;;;;;;3.20;2.90;;;;;;;13.82;68.25;100520.38;4989335;28;20231;-77
2022/07/09 02:17:19;;;;;;;3.13;2.93;;;;;;;13.80;68.41;100524.91;4981221;28;20232;-78
2022/07/09 02:19:44;;;;;;;3.03;2.83;;;;;;;13.76;68.47;100526.06;4996045;28;20201;-78
2022/07/09 02:22:10;;;;;;;4.70;3.23;;;;;;;13.67;68.74;100516.91;4985406;28;20515;-78
2022/07/09 02:24:35;;;;;;;4.37;3.07;;;;;;;13.59;68.76;100520.03;4989686;28;20354;-77
2022/07/09 02:27:00;;;;;;;2.77;2.57;;;;;;;13.47;69.16;100519.00;4986216;28;20215;-77
2022/07/09 02:29:26;;;;;;;3.60;3.27;;;;;;;13.45;69.25;100512.13;4988188;28;20323;-77
2022/07/09 02:31:54;;;;;;;3.47;3.17;;;;;;;13.52;69.00;100512.56;4991349;28;20258;-78
2022/07/09 02:34:19;;;;;;;7.25;3.67;;;;;;;13.57;68.86;100526.34;4983694;28;20634;-77
2022/07/09 02:36:44;;;;;;;2.90;2.70;;;;;;;13.62;68.86;100519.00;4988049;28;20221;-77
2022/07/09 02:39:10;;;;;;;4.10;2.77;;;;;;;13.67;68.70;100522.19;4982220;28;20210;-77
2022/07/09 02:41:35;;;;;;;6.30;3.57;;;;;;;13.68;68.77;100523.88;4993635;28;20270;-77
2022/07/09 02:44:01;;;;;;;5.80;3.47;;;;;;;13.65;68.66;100530.19;5001663;28;20211;-79
2022/07/09 02:46:26;;;;;;;3.90;3.50;;;;;;;13.62;69.01;100522.47;4989212;28;20285;-79
2022/07/09 02:48:52;;;;;;;5.07;3.60;;;;;;;13.63;69.16;100520.69;4979631;28;20471;-78
2022/07/09 02:51:17;;;;;;;4.50;2.97;;;;;;;13.62;69.20;100526.91;4987649;28;20277;-77
2022/07/09 02:53:42;;;;;;;6.87;2.90;;;;;;;13.58;69.38;100523.59;4996614;28;20213;-77
2022/07/09 02:56:08;;;;;;;3.10;2.80;;;;;;;13.57;69.60;100526.34;4984792;28;20204;-77
2022/07/09 02:58:33;;;;;;;7.43;3.80;;;;;;;13.55;69.62;100536.13;4984335;28;20208;-77
2022/07/09 03:00:59;;;;;;;4.10;3.70;;;;;;;13.49;69.67;100530.28;4985867;28;20208;-77
2022/07/09 03:03:24;;;;;;;4.90;3.78;;;;;;;13.46;70.25;100537.56;4991197;28;20558;-77
2022/07/09 03:05:50;;;;;;;3.30;3.00;;;;;;;13.45;70.45;100522.66;4988208;28;20205;-77
2022/07/09 03:08:16;;;;;;;6.53;4.70;;;;;;;13.47;70.37;100520.75;4982631;28;21106;-77
2022/07/09 03:10:41;;;;;;;4.27;3.67;;;;;;;13.44;70.26;100519.16;4989698;28;20211;-77
2022/07/09 03:13:07;;;;;;;5.63;5.13;;;;;;;13.42;70.25;100518.44;4994464;28;20250;-77
2022/07/09 03:15:32;;;;;;;4.90;4.17;;;;;;;13.29;70.36;100522.75;4991826;28;20218;-76
2022/07/09 03:17:57;;;;;;;5.90;5.40;;;;;;;13.12;70.68;100528.13;4989030;28;20206;-79
2022/07/09 03:20:23;;;;;;;9.53;8.53;;;;;;;12.99;71.06;100534.16;4989839;28;20778;-79
2022/07/09 03:22:48;;;;;;;24.40;21.90;;;;;;;12.88;71.35;100533.06;4995990;28;20475;-77
2022/07/09 03:25:14;;;;;;;13.97;10.70;;;;;;;12.80;71.60;100531.75;4986003;28;20219;-77
2022/07/09 03:27:39;;;;;;;13.40;11.67;;;;;;;12.73;71.77;100533.03;4992403;28;20305;-77
2022/07/09 03:30:05;;;;;;;16.87;15.10;;;;;;;12.71;72.00;100532.25;4993364;28;20672;-77
2022/07/09 03:32:30;;;;;;;13.90;12.40;;;;;;;12.65;72.09;100534.41;4995641;28;20586;-77
2022/07/09 03:34:56;;;;;;;22.60;20.13;;;;;;;12.53;72.49;100538.56;4993913;28;20268;-77
2022/07/09 03:37:22;;;;;;;19.20;17.20;;;;;;;12.44;72.83;100545.22;4993176;28;20226;-76
2022/07/09 03:39:48;;;;;;;12.00;11.00;;;;;;;12.36;73.07;100539.53;4992178;28;20207;-77
2022/07/09 03:42:14;;;;;;;8.00;7.20;;;;;;;12.27;73.27;100537.44;4989422;28;20222;-77
2022/07/09 03:44:39;;;;;;;5.10;4.70;;;;;;;12.22;73.19;100540.31;4992908;28;20679;-78
2022/07/09 03:47:06;;;;;;;8.00;3.30;;;;;;;12.21;73.51;100543.06;4993627;28;20541;-78
2022/07/09 03:49:32;;;;;;;3.22;2.70;;;;;;;12.25;73.42;100544.56;4994664;28;20308;-77
2022/07/09 03:51:58;;;;;;;2.70;2.50;;;;;;;12.28;73.10;100547.88;4983518;28;20600;-76
2022/07/09 03:54:23;;;;;;;5.30;3.20;;;;;;;12.33;73.01;100544.97;4999297;28;20692;-77
2022/07/09 03:56:49;;;;;;;5.87;4.17;;;;;;;12.37;72.60;100538.63;4995566;28;20572;-77
2022/07/09 03:59:15;;;;;;;6.70;6.10;;;;;;;12.45;72.76;100540.81;5003155;28;20221;-77
2022/07/09 04:01:40;;;;;;;6.80;5.67;;;;;;;12.52;72.43;100542.16;4990409;28;20227;-76
2022/07/09 04:04:06;;;;;;;7.17;6.43;;;;;;;12.56;72.33;100544.53;4990756;28;20211;-76
2022/07/09 04:06:32;;;;;;;5.93;5.33;;;;;;;12.59;72.31;100536.47;4999140;28;20233;-77
2022/07/09 04:08:57;;;;;;;5.90;5.33;;;;;;;12.64;72.22;100544.13;4997342;28;20219;-78
2022/07/09 04:11:23;;;;;;;5.10;4.60;;;;;;;12.71;72.05;100541.97;4985641;28;20334;-78
2022/07/09 04:13:48;;;;;;;5.13;4.63;;;;;;;12.83;71.72;100547.38;4983794;28;20710;-77
2022/07/09 04:16:14;;;;;;;5.80;5.30;;;;;;;12.87;71.62;100545.41;4994895;28;20211;-77
2022/07/09 04:18:44;;;;;;;5.50;5.10;;;;;;;12.90;71.57;100542.59;4980886;28;20238;-77
2022/07/09 04:21:10;;;;;;;4.97;4.53;;;;;;;12.97;71.44;100549.22;4996939;28;20207;-77
2022/07/09 04:23:35;;;;;;;6.30;4.77;;;;;;;13.06;71.12;100547.81;4985674;28;20557;-77
2022/07/09 04:26:01;;;;;;;4.47;4.07;;;;;;;13.12;70.85;100544.81;4993888;28;20204;-77
2022/07/09 04:28:26;;;;;;;5.17;4.77;;;;;;;13.20;70.50;100554.91;4987820;28;20225;-77
2022/07/09 04:30:52;;;;;;;9.52;7.63;;;;;;;13.33;70.67;100555.06;4994747;28;20492;-78
2022/07/09 04:33:18;;;;;;;11.17;9.13;;;;;;;13.35;70.97;100553.19;4990816;28;20527;-78
2022/07/09 04:35:44;;;;;;;4.40;4.00;;;;;;;13.27;71.11;100548.38;5000786;28;20214;-77
2022/07/09 04:38:11;;;;;;;3.20;2.95;;;;;;;13.16;71.08;100556.03;4990977;28;20676;-77
2022/07/09 04:40:36;;;;;;;4.88;3.50;;;;;;;13.07;71.18;100560.94;4983381;28;20219;-77
2022/07/09 04:43:02;;;;;;;4.47;3.33;;;;;;;13.03;71.19;100556.75;4989594;28;20238;-77
2022/07/09 04:45:29;;;;;;;9.23;8.40;;;;;;;13.06;71.29;100550.44;4991193;28;20220;-76
2022/07/09 04:47:56;;;;;;;25.20;22.70;;;;;;;13.10;71.23;100554.63;4984672;28;20294;-76
2022/07/09 04:50:21;;;;;;;30.33;27.25;;;;;;;13.19;71.07;100553.22;4983228;28;20346;-77
2022/07/09 04:52:46;;;;;;;33.20;26.87;;;;;;;13.32;70.66;100556.88;4982824;28;20326;-77
2022/07/09 04:55:12;;;;;;;11.97;10.77;;;;;;;13.90;68.98;100548.00;4983823;28;20439;-78
2022/07/09 04:57:37;;;;;;;14.40;13.00;;;;;;;15.51;63.62;100541.03;4985195;28;20403;-77
2022/07/09 05:00:06;;;;;;;34.72;30.15;;;;;;;17.36;57.67;100543.44;5000234;28;20199;-77
2022/07/09 05:02:32;;;;;;;24.10;21.52;;;;;;;18.92;52.75;100526.53;4986539;28;20507;-77
2022/07/09 05:04:57;;;;;;;37.30;33.70;;;;;;;20.09;49.46;100525.31;4984306;28;20268;-77
2022/07/09 05:07:22;;;;;;;27.00;24.23;;;;;;;21.05;47.09;100528.22;4983053;28;20238;-77
2022/07/09 05:09:48;;;;;;;19.70;17.67;;;;;;;21.79;45.01;100531.00;4983156;28;20245;-77
2022/07/09 05:12:13;;;;;;;24.40;21.97;;;;;;;22.37;43.60;100521.00;4987232;28;20301;-78
2022/07/09 05:14:39;;;;;;;13.13;11.73;;;;;;;23.09;42.08;100519.16;4996340;28;20214;-78
2022/07/09 05:17:05;;;;;;;6.73;5.83;;;;;;;23.82;40.25;100521.44;4981941;28;20766;-78
2022/07/09 05:19:31;;;;;;;102.63;81.47;;;;;;;24.64;38.72;100511.78;4980449;28;20310;-77
2022/07/09 05:21:57;;;;;;;61.90;52.03;;;;;;;25.48;37.15;100514.22;4987459;28;20475;-78
2022/07/09 05:24:22;;;;;;;19.30;14.10;;;;;;;26.11;35.76;100516.00;4977992;28;20494;-78
2022/07/09 05:26:48;;;;;;;11.30;6.77;;;;;;;26.29;34.61;100513.06;4982840;28;20200;-78
2022/07/09 05:29:14;;;;;;;5.47;3.93;;;;;;;26.52;34.17;100510.44;4987830;28;20233;-77
2022/07/09 05:31:39;;;;;;;3.40;3.10;;;;;;;27.05;33.33;100503.22;4986166;28;20290;-78
2022/07/09 05:34:05;;;;;;;4.47;2.23;;;;;;;27.27;32.81;100504.19;4993987;28;21062;-77
2022/07/09 05:36:31;;;;;;;8.37;7.20;;;;;;;27.50;32.80;100512.22;4984940;28;20212;-77
2022/07/09 05:38:58;;;;;;;9.37;6.60;;;;;;;27.93;32.10;100509.72;4965503;28;20268;-78
2022/07/09 05:41:24;;;;;;;4.33;3.43;;;;;;;28.26;31.54;100501.16;4993309;28;20483;-78
2022/07/09 05:43:51;;;;;;;3.80;2.67;;;;;;;28.60;30.60;100499.66;4991058;28;21159;-78
2022/07/09 05:46:16;;;;;;;4.17;3.10;;;;;;;28.51;30.84;100498.94;4990202;28;20213;-77
2022/07/09 05:48:42;;;;;;;2.40;2.20;;;;;;;28.76;30.08;100504.81;4987187;28;20471;-80
2022/07/09 05:51:08;;;;;;;3.77;2.60;;;;;;;28.51;29.85;100501.66;4998666;28;20232;-79
2022/07/09 05:53:34;;;;;;;4.90;2.97;;;;;;;28.20;29.80;100501.94;4998555;28;20462;-79
2022/07/09 05:55:59;;;;;;;3.37;3.07;;;;;;;28.07;30.15;100501.78;4995086;28;20206;-79
2022/07/09 05:58:24;;;;;;;6.33;3.73;;;;;;;28.48;29.35;100495.81;4992018;28;20221;-79
2022/07/09 06:00:50;;;;;;;5.63;4.90;;;;;;;29.00;28.90;100495.44;4994214;28;20290;-79
2022/07/09 06:03:15;;;;;;;4.30;2.90;;;;;;;29.28;28.48;100492.75;4972152;28;20604;-83
2022/07/09 06:05:41;;;;;;;3.70;2.40;;;;;;;29.71;27.58;100494.47;4991173;28;20255;-83
2022/07/09 06:08:06;;;;;;;7.00;3.30;;;;;;;29.74;27.82;100494.06;4942045;28;20245;-83
2022/07/09 06:10:31;;;;;;;3.40;2.57;;;;;;;29.97;27.17;100489.16;4935148;29;20331;-78
2022/07/09 06:12:57;;;;;;;5.40;2.20;;;;;;;30.01;27.45;100492.28;4935340;29;20233;-80
2022/07/09 06:15:22;;;;;;;2.70;2.50;;;;;;;30.57;26.38;100494.75;4929788;29;20286;-78
2022/07/09 06:17:50;;;;;;;2.90;2.50;;;;;;;30.60;26.72;100494.31;4934870;29;20677;-78
2022/07/09 06:20:16;;;;;;;3.30;3.00;;;;;;;30.76;26.68;100492.22;4936865;29;20559;-81
2022/07/09 06:22:41;;;;;;;2.97;2.77;;;;;;;31.34;25.71;100488.88;4933095;29;20505;-78
2022/07/09 06:25:08;;;;;;;2.80;2.40;;;;;;;31.29;25.69;100492.22;4971941;28;20498;-78
2022/07/09 06:27:34;;;;;;;5.17;2.70;;;;;;;30.98;25.99;100484.75;4991093;28;20215;-83
2022/07/09 06:29:59;;;;;;;3.20;2.70;;;;;;;31.22;25.74;100491.41;4988708;28;20381;-84
2022/07/09 06:32:25;;;;;;;3.70;2.50;;;;;;;31.68;25.41;100490.47;4991492;28;20519;-81
2022/07/09 06:34:51;;;;;;;3.27;2.60;;;;;;;31.91;25.08;100490.78;4990661;28;20228;-82
2022/07/09 06:37:16;;;;;;;4.50;2.80;;;;;;;31.48;25.88;100482.38;4991311;28;20502;-79
2022/07/09 06:39:44;;;;;;;4.27;3.07;;;;;;;31.50;25.75;100483.00;4990303;28;20240;-79
2022/07/09 06:42:10;;;;;;;2.87;2.67;;;;;;;31.93;24.63;100480.56;4990342;28;20257;-80
2022/07/09 06:44:36;;;;;;;3.33;2.30;;;;;;;32.17;24.65;100478.13;4975449;28;20554;-81
2022/07/09 06:47:03;;;;;;;3.80;2.57;;;;;;;32.23;24.09;100481.88;4990361;28;20471;-81
2022/07/09 06:49:28;;;;;;;3.70;1.93;;;;;;;31.88;24.66;100487.66;4989264;28;20550;-84
2022/07/09 06:51:54;;;;;;;4.97;2.23;;;;;;;31.34;25.75;100489.69;4998088;28;20900;-83
2022/07/09 06:54:19;;;;;;;2.83;2.00;;;;;;;30.95;25.44;100483.31;4995589;28;20592;-85
2022/07/09 06:56:44;;;;;;;2.87;2.10;;;;;;;30.59;25.66;100484.50;4992601;28;20321;-79
2022/07/09 06:59:10;;;;;;;2.53;2.17;;;;;;;30.38;25.33;100485.53;4990518;28;20202;-78
2022/07/09 07:01:35;;;;;;;10.33;2.33;;;;;;;30.31;25.58;100484.69;4990771;28;20232;-78
2022/07/09 07:04:00;;;;;;;4.50;1.93;;;;;;;29.88;25.96;100486.81;4993057;28;20212;-78
2022/07/09 07:06:26;;;;;;;3.63;2.50;;;;;;;29.30;27.08;100485.25;4986119;28;20625;-78
2022/07/09 07:08:51;;;;;;;4.77;2.00;;;;;;;28.96;27.79;100493.31;4987263;28;20231;-79
2022/07/09 07:11:16;;;;;;;3.37;2.53;;;;;;;28.70;28.39;100483.94;4988107;28;20264;-78
2022/07/09 07:13:42;;;;;;;7.43;3.70;;;;;;;28.87;28.71;100481.81;4995012;28;20211;-78
2022/07/09 07:16:07;;;;;;;4.60;2.67;;;;;;;29.38;27.94;100480.72;4986216;28;20233;-78
2022/07/09 07:18:33;;;;;;;9.10;3.80;;;;;;;29.69;27.95;100481.13;4987834;28;20233;-78
2022/07/09 07:20:58;;;;;;;6.23;2.90;;;;;;;29.61;28.05;100478.53;4994033;28;20580;-78
2022/07/09 07:23:23;;;;;;;10.40;3.57;;;;;;;29.44;28.68;100477.22;4987261;28;20239;-78
2022/07/09 07:25:49;;;;;;;7.50;3.30;;;;;;;29.42;28.70;100480.13;4989280;28;20590;-78
2022/07/09 07:28:14;;;;;;;9.63;4.20;;;;;;;29.43;28.87;100475.53;4990460;28;20213;-81
2022/07/09 07:30:39;;;;;;;6.17;2.83;;;;;;;29.50;29.28;100471.00;4989687;28;20208;-84
2022/07/09 07:33:05;;;;;;;2.50;2.30;;;;;;;29.21;29.88;100467.50;4986885;28;20229;-85
2022/07/09 07:35:30;;;;;;;2.83;2.40;;;;;;;29.18;30.01;100473.31;4994256;28;20708;-78
2022/07/09 07:37:58;;;;;;;4.97;2.80;;;;;;;29.11;30.46;100467.00;4992349;28;20257;-78
2022/07/09 07:40:24;;;;;;;2.43;2.17;;;;;;;29.10;30.21;100470.75;4990638;28;20207;-80
2022/07/09 07:42:49;;;;;;;2.67;2.47;;;;;;;29.35;29.65;100476.53;4987486;28;20920;-82
2022/07/09 07:45:15;;;;;;;3.70;2.40;;;;;;;29.40;29.14;100465.94;4986284;28;20498;-84
2022/07/09 07:47:40;;;;;;;2.53;2.20;;;;;;;29.48;28.95;100471.19;4989940;28;20841;-79
2022/07/09 07:50:06;;;;;;;4.73;2.70;;;;;;;29.82;28.63;100474.94;4991285;28;20267;-82
2022/07/09 07:52:32;;;;;;;2.57;2.13;;;;;;;30.30;27.62;100466.75;4989003;28;20228;-78
2022/07/09 07:54:57;;;;;;;4.00;2.60;;;;;;;30.86;26.63;100457.41;4990309;28;21003;-84
2022/07/09 07:57:23;;;;;;;4.03;2.67;;;;;;;31.33;26.22;100455.47;4994605;28;20457;-85
2022/07/09 07:59:48;;;;;;;2.63;2.40;;;;;;;31.18;26.23;100458.41;4987757;28;20208;-79
2022/07/09 08:02:14;;;;;;;3.50;2.10;;;;;;;30.92;26.94;100453.88;4989591;28;20221;-79
2022/07/09 08:04:40;;;;;;;3.00;2.27;;;;;;;31.05;26.80;100459.25;4991167;28;20217;-79
2022/07/09 08:07:05;;;;;;;4.27;2.57;;;;;;;31.18;26.55;100452.16;4998316;28;20483;-81
2022/07/09 08:09:32;;;;;;;3.97;2.27;;;;;;;31.19;26.51;100448.38;4996302;28;20787;-79
2022/07/09 08:11:58;;;;;;;3.80;2.80;;;;;;;31.02;26.47;100450.72;4994295;28;20236;-78
2022/07/09 08:14:23;;;;;;;4.00;2.30;;;;;;;30.54;27.62;100456.34;4984002;28;20522;-82
2022/07/09 08:16:48;;;;;;;4.70;2.20;;;;;;;30.64;27.37;100454.06;4995811;28;20919;-77
2022/07/09 08:19:15;;;;;;;5.03;2.70;;;;;;;30.53;27.36;100454.69;4992617;28;20292;-81
2022/07/09 08:21:41;;;;;;;2.77;2.53;;;;;;;30.31;27.27;100459.47;4995817;28;20483;-84
2022/07/09 08:24:07;;;;;;;3.07;2.73;;;;;;;30.62;27.00;100459.69;4989022;28;20830;-79
2022/07/09 08:26:32;;;;;;;2.20;2.00;;;;;;;30.98;26.28;100447.59;4991766;28;20461;-81
2022/07/09 08:28:58;;;;;;;11.20;5.10;;;;;;;30.95;26.35;100439.06;4992431;28;20363;-80
2022/07/09 08:31:24;;;;;;;2.50;2.30;;;;;;;30.63;26.92;100442.38;4991303;28;20736;-78
2022/07/09 08:33:50;;;;;;;3.00;2.23;;;;;;;29.78;27.77;100441.16;4990820;28;20224;-78
2022/07/09 08:36:17;;;;;;;5.80;2.40;;;;;;;29.04;28.91;100439.09;4995071;28;20489;-79
2022/07/09 08:38:43;;;;;;;2.57;2.37;;;;;;;28.44;29.88;100439.44;4996847;28;20483;-80
2022/07/09 08:41:09;;;;;;;2.33;1.93;;;;;;;28.18;30.58;100436.44;4997352;28;20546;-80
2022/07/09 08:43:36;;;;;;;3.17;2.27;;;;;;;28.28;30.81;100433.44;4998454;28;21109;-83
2022/07/09 08:46:02;;;;;;;5.83;2.70;;;;;;;28.51;30.13;100431.38;4989991;28;20205;-78
2022/07/09 08:48:32;;;;;;;2.20;2.00;;;;;;;28.51;30.12;100430.53;4993624;28;20551;-81
2022/07/09 08:50:59;;;;;;;2.47;2.20;;;;;;;28.11;30.82;100436.38;4992183;28;20474;-79
2022/07/09 08:53:27;;;;;;;5.33;3.07;;;;;;;27.98;31.03;100434.38;4998495;28;20519;-78
2022/07/09 08:55:54;;;;;;;3.50;2.63;;;;;;;27.77;31.18;100435.13;4994325;28;20643;-83
2022/07/09 08:58:19;;;;;;;4.23;2.50;;;;;;;27.54;32.07;100437.13;4994928;28;20554;-81
2022/07/09 09:00:47;;;;;;;4.10;2.60;;;;;;;27.35;32.52;100438.53;4994087;28;20539;-78
2022/07/09 09:03:13;;;;;;;3.97;2.88;;;;;;;27.39;32.88;100434.47;4996592;28;20480;-81
2022/07/09 09:05:38;;;;;;;6.03;2.70;;;;;;;27.43;32.70;100427.66;4995854;28;20224;-77
2022/07/09 09:08:20;;;;;;;3.50;2.93;;;;;;;27.38;33.00;100421.97;4991852;28;20237;-78
2022/07/09 09:10:46;;;;;;;3.80;3.00;;;;;;;27.43;32.61;100424.94;4993799;28;20209;-78
2022/07/09 09:13:15;;;;;;;7.20;2.97;;;;;;;27.61;32.49;100411.06;4990671;28;20472;-79
2022/07/09 09:15:41;;;;;;;2.70;2.07;;;;;;;27.62;33.00;100414.59;4994755;28;20793;-81
2022/07/09 09:18:06;;;;;;;5.73;2.97;;;;;;;27.67;32.68;100409.47;4992719;28;20466;-80
2022/07/09 09:20:32;;;;;;;2.83;2.60;;;;;;;27.61;32.49;100404.84;4992764;28;20208;-79
2022/07/09 09:23:02;;;;;;;4.13;2.40;;;;;;;27.61;32.69;100399.44;4995044;28;20315;-81
2022/07/09 09:25:28;;;;;;;2.20;2.00;;;;;;;27.47;32.55;100407.38;4992060;28;20673;-79
2022/07/09 09:27:58;;;;;;;4.60;2.77;;;;;;;27.59;32.57;100397.75;4987133;28;20495;-78
2022/07/09 09:30:25;;;;;;;8.10;2.57;;;;;;;27.95;31.84;100396.09;4989284;28;20468;-84
2022/07/09 09:32:59;;;;;;;2.47;2.10;;;;;;;28.25;31.18;100402.22;4996660;28;20555;-79
2022/07/09 09:35:29;;;;;;;2.90;2.33;;;;;;;28.44;30.98;100400.78;4993467;28;20507;-80
2022/07/09 09:37:55;;;;;;;3.37;2.57;;;;;;;28.58;30.67;100396.31;4993961;28;21028;-79
2022/07/09 09:40:21;;;;;;;2.97;2.40;;;;;;;28.79;30.45;100396.25;4990325;28;20491;-76
2022/07/09 09:42:48;;;;;;;3.03;2.73;;;;;;;29.05;30.20;100392.06;4996071;28;20621;-79
2022/07/09 09:45:14;;;;;;;3.50;3.20;;;;;;;28.99;30.34;100392.84;4994509;28;20600;-79
2022/07/09 09:47:45;;;;;;;4.60;2.50;;;;;;;28.97;30.34;100392.19;4996904;28;21009;-78
2022/07/09 09:50:24;;;;;;;3.27;2.67;;;;;;;28.93;30.51;100389.06;4993694;28;20778;-84
2022/07/09 09:52:54;;;;;;;3.80;2.13;;;;;;;29.04;30.56;100390.41;4990802;28;20582;-78
2022/07/09 09:55:21;;;;;;;7.57;2.87;;;;;;;29.23;29.97;100378.03;4996653;28;20738;-79
2022/07/09 09:57:48;;;;;;;2.53;2.33;;;;;;;29.28;30.11;100375.56;4991668;28;20810;-78
2022/07/09 10:00:15;;;;;;;2.80;2.60;;;;;;;29.28;30.02;100372.84;4987514;28;20486;-78
2022/07/09 10:02:46;;;;;;;4.77;2.13;;;;;;;29.27;30.28;100380.13;4991047;28;20467;-83
2022/07/09 10:05:12;;;;;;;3.40;2.63;;;;;;;29.44;30.15;100382.50;4993082;28;20744;-83
2022/07/09 10:07:39;;;;;;;4.87;2.40;;;;;;;29.58;29.80;100376.06;4992015;28;20525;-79
2022/07/09 10:10:06;;;;;;;2.33;2.10;;;;;;;29.61;29.26;100374.84;4990317;28;20213;-81
2022/07/09 10:12:36;;;;;;;3.33;3.00;;;;;;;29.72;29.26;100377.81;4988899;28;20512;-79
2022/07/09 10:15:08;;;;;;;2.10;1.80;;;;;;;29.84;28.70;100371.78;4991696;28;20832;-78
2022/07/09 10:17:42;;;;;;;4.30;2.50;;;;;;;30.00;28.44;100368.69;4996700;28;20471;-80
2022/07/09 10:20:10;;;;;;;2.63;1.90;;;;;;;30.11;28.26;100364.53;4995196;28;20491;-78
2022/07/09 10:22:43;;;;;;;2.57;2.40;;;;;;;30.02;28.50;100354.97;4991518;28;20488;-83
2022/07/09 10:25:10;;;;;;;1.80;1.70;;;;;;;30.00;28.58;100363.28;4995175;28;20949;-78
2022/07/09 10:27:46;;;;;;;4.17;2.00;;;;;;;30.14;28.14;100356.84;4988709;28;20471;-80
2022/07/09 10:30:22;;;;;;;3.63;2.10;;;;;;;30.14;28.00;100350.59;4991623;28;20490;-79
2022/07/09 10:33:07;;;;;;;2.37;2.00;;;;;;;30.23;28.00;100340.41;4990067;28;20764;-83
2022/07/09 10:35:52;;;;;;;3.23;2.27;;;;;;;30.44;27.69;100337.50;4994030;28;20448;-79
2022/07/09 10:38:19;;;;;;;3.87;2.07;;;;;;;30.59;27.47;100332.66;4991429;28;20463;-78
2022/07/09 10:40:47;;;;;;;3.20;2.70;;;;;;;30.65;27.30;100339.97;4988723;28;20483;-78
2022/07/09 10:43:14;;;;;;;3.17;2.10;;;;;;;30.74;26.96;100331.59;4990478;28;20580;-78
2022/07/09 10:45:44;;;;;;;2.80;1.60;;;;;;;30.27;27.68;100328.09;4991385;28;20559;-81
2022/07/09 10:48:13;;;;;;;3.57;1.80;;;;;;;30.06;27.91;100323.72;4988738;28;20478;-79
2022/07/09 10:50:40;;;;;;;3.27;1.80;;;;;;;30.11;28.09;100326.59;4994046;28;20969;-78
2022/07/09 10:53:06;;;;;;;4.13;1.97;;;;;;;30.11;28.08;100315.78;4987959;28;20487;-80
2022/07/09 10:55:32;;;;;;;1.67;1.57;;;;;;;30.26;28.04;100324.56;4996433;28;20464;-78
2022/07/09 10:57:58;;;;;;;1.60;1.50;;;;;;;30.49;27.80;100310.59;4990960;28;20474;-83
2022/07/09 11:00:25;;;;;;;2.13;1.80;;;;;;;30.52;27.20;100321.00;4991595;28;20212;-86
2022/07/09 11:03:03;;;;;;;3.50;2.13;;;;;;;30.71;27.20;100311.16;4989697;28;20209;-79
2022/07/09 11:05:30;;;;;;;4.23;2.00;;;;;;;30.76;26.79;100318.63;4993500;28;20467;-81
2022/07/09 11:07:58;;;;;;;3.50;2.07;;;;;;;30.70;26.83;100319.50;4992800;28;20467;-77
2022/07/09 11:10:26;;;;;;;1.97;1.77;;;;;;;30.49;27.37;100313.31;4988294;28;20471;-80
2022/07/09 11:12:52;;;;;;;5.33;2.53;;;;;;;30.16;27.48;100311.41;4993301;28;21067;-77
2022/07/09 11:15:19;;;;;;;4.27;2.03;;;;;;;30.06;27.73;100308.28;4998806;28;20463;-78
2022/07/09 11:18:01;;;;;;;2.70;1.83;;;;;;;30.03;27.34;100305.13;4989073;28;20201;-82
2022/07/09 11:20:29;;;;;;;2.10;1.80;;;;;;;29.75;27.89;100307.00;4985002;28;20530;-77